| Date | Time | Temp. (oF) | Dew Point (oF) | Rel. Hum. (%) | Press. (in.) | Wind Dir. | Wind Speed (mph) | Hourly Rainfall (in.) |
|
|---|---|---|---|---|---|---|---|---|---|
| 1 | 05/07 | 00:00 | 56 | 55 | 98 | 29.94 | SSW | 1 | 0.00 |
| 2 | 05/06 | 23:00 | 57 | 55 | 95 | 29.97 | SSW | 2 | 0.00 |
| 3 | 05/06 | 22:00 | 58 | 55 | 91 | 29.97 | NNW | 0 | 0.00 |
| 4 | 05/06 | 21:00 | 59 | 56 | 90 | 29.96 | WSW | 1 | 0.00 |
| 5 | 05/06 | 20:00 | 62 | 57 | 84 | 29.94 | S | 4 | 0.00 |
| 6 | 05/06 | 19:00 | 62 | 56 | 81 | 29.91 | SE | 2 | 0.00 |
| 7 | 05/06 | 18:00 | 63 | 56 | 79 | 29.93 | WSW | 2 | 0.00 |
| 8 | 05/06 | 17:00 | 63 | 56 | 78 | 29.93 | SSW | 4 | 0.00 |
| 9 | 05/06 | 16:00 | 61 | 55 | 81 | 29.93 | SE | 3 | 0.00 |
| 10 | 05/06 | 15:00 | 61 | 55 | 81 | 29.95 | WSW | 3 | 0.00 |
| 11 | 05/06 | 14:00 | 59 | 54 | 85 | 29.96 | S | 2 | 0.00 |
| 12 | 05/06 | 13:00 | 55 | 52 | 92 | 29.98 | E | 1 | 0.00 |
| 13 | 05/06 | 12:00 | 54 | 53 | 98 | 29.99 | NE | 2 | 0.00 |
| 14 | 05/06 | 11:00 | 52 | 51 | 100 | 30.00 | ESE | 4 | 0.00 |
| 15 | 05/06 | 10:00 | 50 | 50 | 100 | 30.02 | E | 3 | 0.00 |
| 16 | 05/06 | 09:00 | 49 | 49 | 100 | 30.01 | NE | 4 | 0.00 |
| 17 | 05/06 | 08:00 | 48 | 48 | 100 | 30.01 | E | 7 | 0.00 |
| 18 | 05/06 | 07:00 | 47 | 46 | 100 | 30.01 | ENE | 4 | 0.00 |
| 19 | 05/06 | 06:00 | 46 | 45 | 100 | 29.98 | ESE | 4 | 0.00 |
| 20 | 05/06 | 05:00 | 46 | 45 | 100 | 29.98 | SE | 1 | 0.00 |
| 21 | 05/06 | 04:00 | 46 | 45 | 100 | 29.99 | NE | 4 | 0.00 |
| 22 | 05/06 | 03:00 | 46 | 45 | 98 | 29.98 | ESE | 4 | 0.00 |
| 23 | 05/06 | 02:00 | 45 | 43 | 94 | 30.01 | E | 9 | 0.00 |
| 24 | 05/06 | 01:00 | 45 | 42 | 90 | 30.03 | SE | 3 | 0.00 |